createdAt,value
2023-02-16T00:02:13.977Z,66.07
2023-02-16T00:04:42.213Z,66.72
2023-02-16T00:07:10.611Z,64.53
2023-02-16T00:09:38.757Z,73.70
2023-02-16T00:12:34.672Z,65.80
2023-02-16T00:15:12.626Z,54.00
2023-02-16T00:17:40.871Z,62.95
2023-02-16T00:20:15.753Z,39.92
2023-02-16T00:22:45.135Z,58.47
2023-02-16T00:25:13.420Z,48.95
2023-02-16T00:27:41.661Z,68.50
2023-02-16T00:30:16.492Z,68.35
2023-02-16T00:32:45.383Z,71.50
2023-02-16T00:35:16.401Z,57.35
2023-02-16T00:37:44.833Z,61.08
2023-02-16T00:40:15.055Z,61.38
2023-02-16T00:42:44.680Z,64.10
2023-02-16T00:45:18.129Z,65.75
2023-02-16T00:47:48.994Z,63.10
2023-02-16T00:50:19.285Z,58.65
2023-02-16T00:52:50.770Z,75.85
2023-02-16T00:55:21.151Z,50.08
2023-02-16T00:57:50.804Z,78.15
2023-02-16T01:00:24.480Z,72.43
2023-02-16T01:02:55.090Z,57.00
2023-02-16T01:05:23.685Z,70.75
2023-02-16T01:08:09.448Z,63.47
2023-02-16T01:10:56.743Z,74.78
2023-02-16T01:13:26.007Z,74.45
2023-02-16T01:15:55.878Z,70.63
2023-02-16T01:18:24.502Z,58.60
2023-02-16T01:20:52.783Z,60.22
2023-02-16T01:23:20.960Z,61.75
2023-02-16T01:25:49.128Z,74.75
2023-02-16T01:28:21.541Z,76.25
2023-02-16T01:30:50.741Z,75.80
2023-02-16T01:33:20.804Z,71.45
2023-02-16T01:35:49.778Z,75.53
2023-02-16T01:38:20.548Z,73.63
2023-02-16T01:40:58.227Z,79.43
2023-02-16T01:43:30.008Z,72.78
2023-02-16T01:46:03.146Z,69.50
2023-02-16T01:48:33.920Z,75.55
2023-02-16T01:51:09.149Z,65.47
2023-02-16T01:53:44.176Z,79.78
2023-02-16T01:56:21.347Z,84.93
2023-02-16T01:58:53.519Z,72.18
2023-02-16T02:01:49.524Z,69.22
2023-02-16T02:04:47.273Z,74.90
2023-02-16T02:07:25.791Z,71.70
2023-02-16T02:10:01.315Z,79.40
2023-02-16T02:12:38.352Z,66.05
2023-02-16T02:15:09.273Z,76.15
2023-02-16T02:17:38.430Z,74.38
2023-02-16T02:20:16.145Z,75.95
2023-02-16T02:23:34.041Z,78.40
2023-02-16T02:26:44.683Z,81.30
2023-02-16T02:29:41.817Z,69.38
2023-02-16T02:32:22.947Z,81.75
2023-02-16T02:35:03.864Z,78.70
2023-02-16T02:37:41.582Z,64.82
2023-02-16T02:40:16.775Z,77.90
2023-02-16T02:42:55.096Z,68.38
2023-02-16T02:45:28.520Z,70.82
2023-02-16T02:47:57.141Z,64.53
2023-02-16T02:51:06.958Z,76.18
2023-02-16T02:53:38.856Z,70.03
2023-02-16T02:56:26.965Z,66.70
2023-02-16T02:59:16.316Z,74.82
2023-02-16T03:01:51.235Z,80.53
2023-02-16T03:04:24.400Z,67.68
2023-02-16T03:06:55.697Z,70.57
2023-02-16T03:09:24.472Z,76.20
2023-02-16T03:12:13.979Z,74.43
2023-02-16T03:14:45.766Z,77.35
2023-02-16T03:17:36.399Z,60.10
2023-02-16T03:20:26.250Z,62.97
2023-02-16T03:23:11.866Z,74.35
2023-02-16T03:25:59.481Z,73.35
2023-02-16T03:28:47.831Z,74.65
2023-02-16T03:31:19.740Z,58.55
2023-02-16T03:33:54.814Z,78.60
2023-02-16T03:36:24.294Z,78.28
2023-02-16T03:38:53.138Z,63.83
2023-02-16T03:41:21.374Z,72.50
2023-02-16T03:43:49.677Z,64.00
2023-02-16T03:46:17.940Z,63.92
2023-02-16T03:48:46.073Z,69.13
2023-02-16T03:51:15.613Z,72.00
2023-02-16T03:53:43.805Z,68.03
2023-02-16T03:56:12.062Z,71.57
2023-02-16T03:58:40.268Z,66.38
2023-02-16T04:01:08.630Z,64.47
2023-02-16T04:03:36.840Z,71.97
2023-02-16T04:06:05.314Z,67.07
2023-02-16T04:08:34.986Z,66.22
2023-02-16T04:11:23.252Z,70.47
2023-02-16T04:13:50.492Z,64.80
2023-02-16T04:16:18.786Z,68.57
2023-02-16T04:18:47.397Z,64.65
2023-02-16T04:21:15.645Z,73.47
2023-02-16T04:23:45.187Z,70.38
2023-02-16T04:26:13.378Z,67.53
2023-02-16T04:28:41.549Z,67.15
2023-02-16T04:31:10.069Z,71.10
2023-02-16T04:33:38.350Z,64.60
2023-02-16T04:36:09.598Z,68.07
2023-02-16T04:38:37.754Z,64.88
2023-02-16T04:41:07.683Z,73.10
2023-02-16T04:43:35.905Z,71.30
2023-02-16T04:46:04.183Z,71.40
2023-02-16T04:48:32.435Z,62.05
2023-02-16T04:51:00.666Z,62.05
2023-02-16T04:53:28.918Z,55.08
2023-02-16T04:55:57.456Z,75.65
2023-02-16T04:58:27.218Z,64.55
2023-02-16T05:00:55.422Z,56.65
2023-02-16T05:03:23.641Z,67.22
2023-02-16T05:05:51.809Z,70.10
2023-02-16T05:08:20.963Z,66.68
2023-02-16T05:11:10.353Z,66.65
2023-02-16T05:13:59.652Z,63.85
2023-02-16T05:16:27.940Z,65.93
2023-02-16T05:18:58.651Z,69.57
2023-02-16T05:21:32.612Z,50.63
2023-02-16T05:24:01.508Z,61.88
2023-02-16T05:26:30.133Z,70.57
2023-02-16T05:29:01.219Z,57.25
2023-02-16T05:31:30.185Z,62.15
2023-02-16T05:33:58.976Z,65.22
2023-02-16T05:36:27.200Z,70.03
2023-02-16T05:38:55.464Z,66.70
2023-02-16T05:41:26.857Z,69.65
2023-02-16T05:43:56.449Z,56.83
2023-02-16T05:46:26.692Z,64.65
2023-02-16T05:48:55.325Z,58.13
2023-02-16T05:51:23.677Z,69.13
2023-02-16T05:53:52.559Z,48.28
2023-02-16T05:56:21.823Z,62.55
2023-02-16T05:58:50.472Z,61.33
2023-02-16T06:01:19.014Z,62.40
2023-02-16T06:03:49.562Z,54.17
2023-02-16T06:06:18.311Z,58.40
2023-02-16T06:08:47.090Z,59.92
2023-02-16T06:11:29.262Z,64.88
2023-02-16T06:13:59.295Z,50.92
2023-02-16T06:16:28.723Z,64.57
2023-02-16T06:18:59.164Z,62.15
2023-02-16T06:21:28.070Z,64.35
2023-02-16T06:23:56.783Z,60.47
2023-02-16T06:26:25.502Z,58.67
2023-02-16T06:28:53.862Z,63.33
2023-02-16T06:31:22.769Z,63.42
2023-02-16T06:33:52.210Z,62.03
2023-02-16T06:36:24.800Z,49.60
2023-02-16T06:38:53.370Z,61.90
2023-02-16T06:41:33.695Z,55.53
2023-02-16T06:44:02.675Z,60.65
2023-02-16T06:46:31.555Z,68.25
2023-02-16T06:49:00.240Z,56.45
2023-02-16T06:51:30.720Z,50.10
2023-02-16T06:53:59.427Z,60.40
2023-02-16T06:56:27.988Z,54.53
2023-02-16T06:58:56.197Z,129.38
2023-02-16T07:01:26.098Z,78.50
2023-02-16T07:03:56.249Z,63.97
2023-02-16T07:06:26.164Z,60.85
2023-02-16T07:08:56.181Z,51.45
2023-02-16T07:11:24.784Z,61.92
2023-02-16T07:13:53.451Z,57.83
2023-02-16T07:16:21.837Z,56.38
2023-02-16T07:18:50.004Z,64.72
2023-02-16T07:21:18.279Z,51.47
2023-02-16T07:23:46.933Z,60.13
2023-02-16T07:26:16.921Z,65.22
2023-02-16T07:28:45.799Z,61.67
2023-02-16T07:31:16.217Z,64.78
2023-02-16T07:33:45.071Z,50.55
2023-02-16T07:36:14.672Z,61.53
2023-02-16T07:38:43.217Z,61.72
2023-02-16T07:41:12.222Z,60.60
2023-02-16T07:43:43.165Z,64.78
2023-02-16T07:46:11.745Z,56.45
2023-02-16T07:48:40.234Z,66.55
2023-02-16T07:51:08.836Z,62.35
2023-02-16T07:53:37.155Z,60.65
2023-02-16T07:56:05.724Z,60.17
2023-02-16T07:58:34.607Z,58.95
2023-02-16T08:01:10.954Z,67.13
2023-02-16T08:03:39.714Z,56.38
2023-02-16T08:06:09.012Z,59.15
2023-02-16T08:08:38.430Z,65.35
2023-02-16T08:11:11.895Z,59.55
2023-02-16T08:13:41.104Z,53.35
2023-02-16T08:16:12.830Z,64.80
2023-02-16T08:18:42.103Z,57.35
2023-02-16T08:21:14.627Z,50.47
2023-02-16T08:23:47.702Z,56.47
2023-02-16T08:26:18.389Z,56.22
2023-02-16T08:28:47.465Z,50.17
2023-02-16T08:31:19.796Z,60.33
2023-02-16T08:33:49.302Z,49.60
2023-02-16T08:36:21.209Z,56.55
2023-02-16T08:38:52.264Z,57.28
2023-02-16T08:41:22.767Z,67.97
2023-02-16T08:43:52.447Z,69.70
2023-02-16T08:46:23.002Z,63.15
2023-02-16T08:48:51.367Z,60.83
2023-02-16T08:51:20.799Z,64.03
2023-02-16T08:53:49.564Z,64.53
2023-02-16T08:56:17.701Z,64.07
2023-02-16T08:58:46.185Z,51.45
2023-02-16T09:01:16.701Z,61.55
2023-02-16T09:03:48.530Z,58.42
2023-02-16T09:06:20.491Z,45.90
2023-02-16T09:08:52.761Z,43.97
2023-02-16T09:11:21.847Z,55.45
2023-02-16T09:13:50.536Z,65.32
2023-02-16T09:16:20.486Z,55.40
2023-02-16T09:18:51.101Z,54.38
2023-02-16T09:21:20.946Z,63.25
2023-02-16T09:23:50.875Z,62.55
2023-02-16T09:26:20.666Z,61.17
2023-02-16T09:28:50.573Z,56.75
2023-02-16T09:31:26.002Z,49.22
2023-02-16T09:36:24.810Z,61.75
2023-02-16T09:38:54.588Z,59.95
2023-02-16T09:41:29.349Z,74.40
2023-02-16T09:44:00.899Z,65.78
2023-02-16T09:46:31.687Z,66.78
2023-02-16T09:49:03.827Z,59.50
2023-02-16T09:51:37.556Z,57.35
2023-02-16T09:54:21.620Z,53.80
2023-02-16T09:56:55.656Z,65.53
2023-02-16T09:59:38.587Z,57.28
2023-02-16T10:02:42.207Z,63.67
2023-02-16T10:05:22.843Z,61.97
2023-02-16T10:07:58.211Z,57.00
2023-02-16T10:10:31.834Z,54.50
2023-02-16T10:13:07.685Z,66.90
2023-02-16T10:15:36.964Z,60.40
2023-02-16T10:18:08.279Z,60.70
2023-02-16T10:20:39.546Z,62.60
2023-02-16T10:23:10.601Z,60.65
2023-02-16T10:25:43.344Z,59.10
2023-02-16T10:28:18.388Z,66.45
2023-02-16T10:30:51.890Z,64.32
2023-02-16T10:33:27.092Z,66.38
2023-02-16T10:36:02.172Z,61.60
2023-02-16T10:38:37.695Z,66.57
2023-02-16T10:43:41.659Z,63.22
2023-02-16T10:46:14.355Z,54.47
2023-02-16T10:48:42.980Z,48.03
2023-02-16T10:51:14.290Z,60.95
2023-02-16T10:53:45.985Z,63.63
2023-02-16T10:56:38.529Z,76.38
2023-02-16T10:59:09.439Z,71.43
2023-02-16T11:01:40.684Z,63.10
2023-02-16T11:04:10.351Z,57.08
2023-02-16T11:06:40.014Z,50.85
2023-02-16T11:09:08.398Z,69.55
2023-02-16T11:11:40.770Z,65.30
2023-02-16T11:14:10.589Z,61.97
2023-02-16T11:16:39.281Z,67.13
2023-02-16T11:19:19.628Z,57.90
2023-02-16T11:21:50.715Z,64.97
2023-02-16T11:24:28.077Z,67.80
2023-02-16T11:27:07.555Z,71.70
2023-02-16T11:29:36.417Z,75.57
2023-02-16T11:32:09.938Z,55.90
2023-02-16T11:34:42.588Z,59.42
2023-02-16T11:37:19.839Z,51.42
2023-02-16T11:39:53.520Z,56.40
2023-02-16T11:42:30.014Z,55.33
2023-02-16T11:45:01.628Z,46.97
2023-02-16T11:47:34.711Z,49.75
2023-02-16T11:50:17.609Z,60.45
2023-02-16T11:52:49.637Z,53.05
2023-02-16T11:55:23.138Z,50.20
2023-02-16T11:57:52.266Z,52.33
2023-02-16T12:00:23.371Z,53.47
2023-02-16T12:03:03.781Z,45.58
2023-02-16T12:05:38.076Z,50.13
2023-02-16T12:08:16.852Z,46.83
2023-02-16T12:10:52.977Z,46.70
2023-02-16T12:13:27.523Z,51.13
2023-02-16T12:16:00.913Z,45.17
2023-02-16T12:18:34.365Z,41.80
2023-02-16T12:21:10.787Z,54.00
2023-02-16T12:23:43.314Z,47.33
2023-02-16T12:26:22.468Z,41.67
2023-02-16T12:28:53.632Z,44.35
2023-02-16T12:31:27.579Z,48.92
2023-02-16T12:34:05.859Z,39.33
2023-02-16T12:36:48.374Z,63.17
2023-02-16T12:39:25.833Z,57.22
2023-02-16T12:42:13.238Z,57.28
2023-02-16T12:44:48.146Z,65.97
2023-02-16T12:47:26.886Z,52.17
2023-02-16T12:49:57.812Z,46.85
2023-02-16T12:52:34.114Z,42.65
2023-02-16T12:55:16.944Z,38.08
2023-02-16T12:57:53.028Z,30.85
2023-02-16T13:00:27.106Z,41.47
2023-02-16T13:03:04.896Z,39.20
2023-02-16T13:05:38.765Z,34.90
2023-02-16T13:08:15.235Z,40.63
2023-02-16T13:10:57.702Z,31.67
2023-02-16T13:13:28.336Z,36.83
2023-02-16T13:16:03.386Z,32.35
2023-02-16T13:18:38.375Z,35.13
2023-02-16T13:21:11.000Z,31.05
2023-02-16T13:23:52.673Z,33.92
2023-02-16T13:26:50.505Z,29.63
2023-02-16T13:30:04.386Z,30.58
2023-02-16T13:32:52.309Z,35.65
2023-02-16T13:35:37.558Z,34.10
2023-02-16T13:38:28.885Z,37.97
2023-02-16T13:41:09.504Z,38.47
2023-02-16T13:43:42.641Z,35.30
2023-02-16T13:46:16.531Z,40.42
2023-02-16T13:48:48.744Z,32.63
2023-02-16T13:51:18.323Z,37.10
2023-02-16T13:53:52.932Z,37.90
2023-02-16T13:56:23.451Z,34.90
2023-02-16T13:58:54.385Z,30.70
2023-02-16T14:01:40.074Z,31.15
2023-02-16T14:04:12.922Z,39.40
2023-02-16T14:06:42.859Z,41.25
2023-02-16T14:09:33.695Z,40.00
2023-02-16T14:12:19.866Z,36.38
2023-02-16T14:14:57.936Z,28.10
2023-02-16T14:17:28.104Z,31.02
2023-02-16T14:19:57.809Z,30.77
2023-02-16T14:22:30.427Z,29.35
2023-02-16T14:25:00.690Z,29.02
2023-02-16T14:27:42.751Z,31.27
2023-02-16T14:30:17.964Z,27.38
2023-02-16T14:32:48.660Z,25.27
2023-02-16T14:35:20.187Z,27.35
2023-02-16T14:37:54.851Z,29.25
2023-02-16T14:40:24.410Z,26.55
2023-02-16T14:42:57.980Z,29.88
2023-02-16T14:45:46.315Z,30.20
2023-02-16T14:48:20.296Z,30.30
2023-02-16T14:50:55.340Z,28.63
2023-02-16T14:53:42.646Z,24.67
2023-02-16T14:56:30.448Z,26.20
2023-02-16T14:59:02.093Z,27.30
2023-02-16T15:01:40.447Z,28.95
2023-02-16T15:04:11.182Z,29.25
2023-02-16T15:06:42.266Z,23.60
2023-02-16T15:09:16.526Z,31.88
2023-02-16T15:12:03.734Z,25.38
2023-02-16T15:14:33.494Z,24.98
2023-02-16T15:17:07.946Z,29.40
2023-02-16T15:19:37.037Z,29.70
2023-02-16T15:22:13.130Z,27.92
2023-02-16T15:24:43.161Z,27.80
2023-02-16T15:27:21.791Z,28.42
2023-02-16T15:30:04.390Z,23.90
2023-02-16T15:32:35.061Z,30.00
2023-02-16T15:35:11.568Z,27.83
2023-02-16T15:37:40.592Z,30.33
2023-02-16T15:40:25.486Z,26.92
2023-02-16T15:42:56.884Z,28.52
2023-02-16T15:45:29.210Z,27.05
2023-02-16T15:48:12.530Z,34.47
2023-02-16T15:50:42.630Z,30.00
2023-02-16T15:53:13.373Z,29.60
2023-02-16T15:55:45.545Z,30.15
2023-02-16T15:58:15.829Z,28.92
2023-02-16T16:00:45.142Z,32.72
2023-02-16T16:03:17.164Z,29.40
2023-02-16T16:05:55.416Z,32.80
2023-02-16T16:08:24.991Z,29.15
2023-02-16T16:10:53.802Z,29.77
2023-02-16T16:13:23.177Z,27.10
2023-02-16T16:15:52.817Z,24.50
2023-02-16T16:18:37.472Z,28.52
2023-02-16T16:21:13.669Z,26.45
2023-02-16T16:23:42.610Z,27.23
2023-02-16T16:26:20.893Z,26.35
2023-02-16T16:28:49.366Z,33.17
2023-02-16T16:31:19.029Z,33.10
2023-02-16T16:33:54.814Z,30.77
2023-02-16T16:36:29.277Z,34.67
2023-02-16T16:39:10.957Z,35.40
2023-02-16T16:41:40.444Z,34.25
2023-02-16T16:44:11.973Z,31.52
2023-02-16T16:46:40.712Z,32.33
2023-02-16T16:49:16.446Z,31.90
2023-02-16T16:51:46.444Z,27.13
2023-02-16T16:54:32.489Z,29.92
2023-02-16T16:57:01.397Z,31.00
2023-02-16T16:59:29.603Z,29.20
2023-02-16T17:01:57.995Z,34.50
2023-02-16T17:04:28.039Z,33.95
2023-02-16T17:06:57.763Z,28.42
2023-02-16T17:09:26.059Z,25.95
2023-02-16T17:11:55.262Z,28.75
2023-02-16T17:14:25.974Z,34.05
2023-02-16T17:16:56.502Z,30.02
2023-02-16T17:19:26.146Z,30.08
2023-02-16T17:21:54.415Z,29.70
2023-02-16T17:24:23.984Z,27.42
2023-02-16T17:26:52.197Z,28.58
2023-02-16T17:29:20.933Z,30.23
2023-02-16T17:31:50.724Z,32.10
2023-02-16T17:34:19.487Z,31.30
2023-02-16T17:36:47.979Z,31.02
2023-02-16T17:39:16.418Z,26.50
2023-02-16T17:41:46.593Z,32.55
2023-02-16T17:44:15.067Z,32.42
2023-02-16T17:46:44.625Z,32.50
2023-02-16T17:49:13.523Z,34.78
2023-02-16T17:51:42.237Z,27.92
2023-02-16T17:54:10.512Z,28.40
2023-02-16T17:56:41.937Z,33.45
2023-02-16T17:59:15.401Z,31.13
2023-02-16T18:01:43.924Z,43.67
2023-02-16T18:04:12.425Z,33.72
2023-02-16T18:06:40.679Z,32.58
2023-02-16T18:09:10.898Z,37.38
2023-02-16T18:11:39.280Z,30.92
2023-02-16T18:14:07.460Z,31.85
2023-02-16T18:16:37.080Z,34.03
2023-02-16T18:19:08.339Z,38.90
2023-02-16T18:21:37.189Z,32.78
2023-02-16T18:24:05.851Z,38.95
2023-02-16T18:26:34.505Z,38.28
2023-02-16T18:29:02.962Z,38.42
2023-02-16T18:31:31.751Z,42.95
2023-02-16T18:34:01.714Z,35.20
2023-02-16T18:36:30.131Z,40.10
2023-02-16T18:38:58.842Z,34.38
2023-02-16T18:41:27.372Z,31.73
2023-02-16T18:43:55.807Z,39.83
2023-02-16T18:46:24.424Z,44.00
2023-02-16T18:48:53.023Z,41.75
2023-02-16T18:51:26.304Z,43.28
2023-02-16T18:53:54.655Z,41.10
2023-02-16T18:56:23.197Z,35.53
2023-02-16T18:58:51.776Z,42.00
2023-02-16T19:01:26.749Z,38.28
2023-02-16T19:03:55.294Z,42.88
2023-02-16T19:06:25.224Z,42.15
2023-02-16T19:08:53.621Z,44.05
2023-02-16T19:11:22.699Z,36.15
2023-02-16T19:13:51.023Z,38.28
2023-02-16T19:16:19.424Z,42.55
2023-02-16T19:18:47.821Z,38.70
2023-02-16T19:21:16.762Z,46.95
2023-02-16T19:23:46.719Z,42.42
2023-02-16T19:26:17.644Z,49.42
2023-02-16T19:28:46.844Z,42.92
2023-02-16T19:31:20.994Z,42.20
2023-02-16T19:33:49.683Z,43.47
2023-02-16T19:36:19.046Z,43.42
2023-02-16T19:38:48.946Z,43.05
2023-02-16T19:41:19.044Z,43.22
2023-02-16T19:43:47.928Z,42.78
2023-02-16T19:46:16.579Z,43.47
2023-02-16T19:48:46.061Z,42.22
2023-02-16T19:51:15.639Z,42.45
2023-02-16T19:53:44.997Z,36.15
2023-02-16T19:56:16.733Z,33.00
2023-02-16T19:58:45.675Z,37.35
2023-02-16T20:01:16.017Z,34.47
2023-02-16T20:03:44.935Z,38.75
2023-02-16T20:06:15.525Z,43.83
2023-02-16T20:08:44.072Z,33.20
2023-02-16T20:11:15.279Z,31.38
2023-02-16T20:13:45.386Z,30.67
2023-02-16T20:16:15.164Z,25.92
2023-02-16T20:18:44.048Z,28.77
2023-02-16T20:21:15.290Z,30.58
2023-02-16T20:23:43.919Z,25.48
2023-02-16T20:26:14.695Z,25.25
2023-02-16T20:28:44.731Z,25.60
2023-02-16T20:31:15.451Z,25.58
2023-02-16T20:33:43.975Z,24.95
2023-02-16T20:36:13.406Z,30.13
2023-02-16T20:38:41.875Z,26.95
2023-02-16T20:41:10.594Z,28.67
2023-02-16T20:43:39.435Z,29.80
2023-02-16T20:46:09.264Z,31.13
2023-02-16T20:48:39.289Z,24.80
2023-02-16T20:51:08.841Z,28.48
2023-02-16T20:53:37.449Z,25.48
2023-02-16T20:56:07.431Z,22.08
2023-02-16T20:58:37.194Z,26.50
2023-02-16T21:01:06.431Z,28.13
2023-02-16T21:03:34.923Z,23.83
2023-02-16T21:06:05.068Z,25.77
2023-02-16T21:08:34.318Z,26.45
2023-02-16T21:11:02.818Z,24.23
2023-02-16T21:13:31.374Z,28.23
2023-02-16T21:15:59.925Z,24.48
2023-02-16T21:18:28.418Z,22.30
2023-02-16T21:20:56.915Z,26.08
2023-02-16T21:23:26.820Z,27.80
2023-02-16T21:25:59.321Z,23.25
2023-02-16T21:28:28.308Z,22.95
2023-02-16T21:30:57.007Z,17.73
2023-02-16T21:33:25.441Z,22.52
2023-02-16T21:35:53.722Z,21.63
2023-02-16T21:38:22.049Z,20.02
2023-02-16T21:41:09.420Z,18.30
2023-02-16T21:43:37.693Z,18.10
2023-02-16T21:46:08.623Z,17.45
2023-02-16T21:48:48.244Z,17.02
2023-02-16T21:51:18.486Z,16.30
2023-02-16T21:53:47.182Z,17.55
2023-02-16T21:56:30.241Z,16.50
2023-02-16T21:58:58.950Z,16.33
2023-02-16T22:01:29.295Z,11.05
2023-02-16T22:03:59.408Z,13.27
2023-02-16T22:06:29.592Z,14.30
2023-02-16T22:08:58.020Z,13.70
2023-02-16T22:11:27.657Z,14.00
2023-02-16T22:13:57.257Z,11.02
2023-02-16T22:16:26.276Z,13.52
2023-02-16T22:18:58.521Z,11.90
2023-02-16T22:21:27.169Z,13.32
2023-02-16T22:23:55.973Z,15.20
2023-02-16T22:26:26.182Z,13.38
2023-02-16T22:28:56.201Z,14.88
2023-02-16T22:31:26.090Z,11.90
2023-02-16T22:33:57.779Z,13.40
2023-02-16T22:36:26.459Z,10.38
2023-02-16T22:38:55.518Z,9.60
2023-02-16T22:41:24.549Z,12.00
2023-02-16T22:43:55.699Z,11.90
2023-02-16T22:46:25.243Z,12.88
2023-02-16T22:48:54.092Z,10.25
2023-02-16T22:51:23.059Z,10.30
2023-02-16T22:53:51.496Z,11.77
2023-02-16T22:56:20.992Z,10.05
2023-02-16T22:58:49.498Z,11.48
2023-02-16T23:01:20.589Z,9.68
2023-02-16T23:03:49.449Z,12.88
2023-02-16T23:06:19.063Z,9.57
2023-02-16T23:08:47.852Z,12.00
2023-02-16T23:11:16.332Z,8.85
2023-02-16T23:13:44.911Z,9.38
2023-02-16T23:16:14.335Z,10.18
2023-02-16T23:18:44.585Z,6.97
2023-02-16T23:21:17.239Z,8.23
2023-02-16T23:23:45.802Z,10.73
2023-02-16T23:26:14.573Z,9.77
2023-02-16T23:28:44.017Z,11.85
2023-02-16T23:31:13.728Z,11.88
2023-02-16T23:33:44.025Z,11.15
2023-02-16T23:36:12.360Z,12.30
2023-02-16T23:38:40.598Z,8.25
2023-02-16T23:41:12.202Z,10.20
2023-02-16T23:43:40.992Z,8.75
2023-02-16T23:46:10.556Z,11.70
2023-02-16T23:48:39.489Z,10.02
2023-02-16T23:51:11.940Z,10.63
2023-02-16T23:53:40.327Z,12.40
2023-02-16T23:56:12.299Z,11.18
2023-02-16T23:58:42.291Z,10.30
